• Join FlightAware (Why Join?)
  • Login
  • US Flag 
08:37PM EDT


 

Airport Tracker/Info


-or-


 

Live Flight TrackerFlight Track Log ✈ N516QS ✈ 15-Jul-2013 ✈ KHPN - KBHB

Flight Track Log - Related Links

Times and Time Zones

All times are in EDT time to prevent confusion due to time zone crossing. See the N516QS flight status page for this flight to view local times or setup timezone preferences in your user account.

Time Position Orientation Groundspeed Altitude Reporting Facility
EDT Latitude Longitude Course Direction KTS MPH feet Rate Location/Type
02:33PM 41.1000 -73.7667 349° North 200 230 2,600  Level New York TRACON
02:34PM 41.1333 -73.8167 312° West 245 282 4,100 1,800 Climbing New York TRACON
02:35PM 41.2000 -73.8000 11° North 269 310 6,200 2,160 Climbing New York TRACON
02:37PM 41.2331 -73.6408 75° East 301 346 9,700 2,220 Climbing Boston Center
02:38PM 41.2819 -73.5644 50° Northeast 284 327 11,900 2,340 Climbing Boston Center
02:39PM 41.7648 -73.1245 349° North  Level FlightAware Approximate
02:39PM 41.3619 -73.4661 43° Northeast 315 362 14,400  Level Boston Center
02:40PM 41.4275 -73.3814 44° Northeast 356 410 17,200 2,820 Climbing Boston Center
02:41PM 41.5178 -73.2664 44° Northeast 378 435 20,100 2,820 Climbing Boston Center
02:42PM 41.5958 -73.1592 46° Northeast 383 441 22,900 2,400 Climbing Boston Center
02:43PM 41.6736 -73.0375 49° Northeast 410 472 25,000 2,400 Climbing Boston Center
02:44PM 41.7556 -72.9103 49° Northeast 435 501 27,700 2,460 Climbing Boston Center
02:45PM 41.8392 -72.7772 50° Northeast 447 514 30,000 1,620 Climbing Boston Center
02:46PM 41.9250 -72.6467 49° Northeast 459 528 31,000 480 Climbing Boston Center
02:47PM 42.0044 -72.5128 51° Northeast 453 521 31,000  Level Boston Center
02:48PM 42.0878 -72.3786 50° Northeast 453 521 31,000  Level Boston Center
02:49PM 42.1625 -72.2328 55° Northeast 458 527 31,000  Level Boston Center
02:50PM 42.2208 -72.1206 55° Northeast 463 533 31,000  Level Boston Center
02:51PM 42.3097 -71.9461 55° Northeast 468 539 31,000  Level Boston Center
02:52PM 42.3839 -71.7992 56° Northeast 468 539 31,000  Level Boston Center
02:53PM 42.4519 -71.6692 55° Northeast 475 547 31,000  Level Boston Center
02:54PM 42.5383 -71.5131 53° Northeast 470 541 31,000  Level Boston Center
02:55PM 42.6142 -71.3681 55° Northeast 470 541 31,000  Level Boston Center
02:56PM 42.6919 -71.2256 53° Northeast 470 541 31,000  Level Boston Center
02:58PM 42.8106 -71.0364 49° Northeast 470 541 31,000  Level Boston Center
02:59PM 42.8964 -70.9011 49° Northeast 464 534 31,000  Level Boston Center
03:00PM 43.0025 -70.7394 48° Northeast 464 534 31,000  Level Boston Center
03:01PM 43.0697 -70.6297 50° Northeast 464 534 31,000  Level Boston Center
03:02PM 43.1569 -70.4933 49° Northeast 464 534 31,000  Level Boston Center
03:03PM 43.2603 -70.3275 49° Northeast 464 534 31,000 -900 Level Boston Center
03:04PM 43.3453 -70.1903 50° Northeast 464 534 29,200 -1,680 Descending Boston Center
03:05PM 43.4178 -70.0706 50° Northeast 459 528 27,400 -1,920 Descending Boston Center
03:06PM 43.5167 -69.9092 50° Northeast 459 528 25,100 -1,980 Descending Boston Center
03:07PM 43.5808 -69.8061 49° Northeast 454 522 23,500 -1,980 Descending Boston Center
03:08PM 43.6733 -69.6556 50° Northeast 437 503 21,200 -2,100 Descending Boston Center
03:09PM 43.7453 -69.5344 51° Northeast 419 482 19,400 -1,800 Descending Boston Center
03:10PM 43.8275 -69.4094 48° Northeast 396 456 17,700 -1,260 Descending Boston Center
03:11PM 43.8892 -69.2997 52° Northeast 396 456 16,900 -1,380 Descending Boston Center
03:12PM 43.9589 -69.1864 49° Northeast 396 456 15,000 -1,920 Descending Boston Center
03:13PM 44.0267 -69.0789 49° Northeast 384 442 13,100 -1,860 Descending Boston Center
03:14PM 44.0922 -68.9681 51° Northeast 372 428 11,300 -1,740 Descending Boston Center
03:15PM 44.1536 -68.8661 50° Northeast 362 417 9,700 -1,500 Descending Boston Center
03:16PM 44.2053 -68.7819 49° Northeast 325 374 8,400 -1,560 Descending Boston Center
03:17PM 44.2481 -68.6894 57° Northeast 292 336 6,600 -1,800 Descending Boston Center
03:18PM 44.2697 -68.5836 74° East 273 314 4,900 -1,080 Descending Boston Center
03:19PM 44.2911 -68.4836 73° East 257 296 4,500 -660 Descending Boston Center
03:20PM 44.3094 -68.4097 71° East 226 260 3,600 -900 Descending Boston Center
03:21PM 44.3367 -68.3500 57° Northeast 196 226 2,700 -1,020 Descending Boston Center
03:22PM 44.3781 -68.3411 North 153 176 1,600 -600 Descending Boston Center
03:23PM 44.4167 -68.3122 28° Northeast 148 170 1,600 -60 Level Boston Center
03:24PM 44.4575 -68.2892 22° Northeast 153 176 1,500 -300 Descending Boston Center
03:25PM 44.4811 -68.3136 324° Northwest 111 128 1,000 -540 Descending Boston Center
03:26PM 44.4742 -68.3492 255° West 68 78 500 -540 Descending Boston Center
03:28PM 44.4498 -68.3616 200° South  Level Estimated